sensor_id;sensor_type;location;lat;lon;timestamp;temperature;humidity
20479;DHT22;10398;52.490;13.434;2023-04-25T00:01:05;10.70;99.90
20479;DHT22;10398;52.490;13.434;2023-04-25T00:03:31;10.70;99.90
20479;DHT22;10398;52.490;13.434;2023-04-25T00:05:58;10.70;99.90
20479;DHT22;10398;52.490;13.434;2023-04-25T00:08:29;10.70;99.90
20479;DHT22;10398;52.490;13.434;2023-04-25T00:10:56;10.70;99.90
20479;DHT22;10398;52.490;13.434;2023-04-25T00:13:22;10.70;99.90
20479;DHT22;10398;52.490;13.434;2023-04-25T00:15:48;10.70;99.90
20479;DHT22;10398;52.490;13.434;2023-04-25T00:18:14;10.70;99.90
20479;DHT22;10398;52.490;13.434;2023-04-25T00:20:40;10.70;99.90
20479;DHT22;10398;52.490;13.434;2023-04-25T00:23:05;10.70;99.90
20479;DHT22;10398;52.490;13.434;2023-04-25T00:25:31;10.70;99.90
20479;DHT22;10398;52.490;13.434;2023-04-25T00:27:57;10.70;99.90
20479;DHT22;10398;52.490;13.434;2023-04-25T00:30:22;10.70;99.90
20479;DHT22;10398;52.490;13.434;2023-04-25T00:32:48;10.70;99.90
20479;DHT22;10398;52.490;13.434;2023-04-25T00:35:14;10.70;99.90
20479;DHT22;10398;52.490;13.434;2023-04-25T00:37:40;10.70;99.90
20479;DHT22;10398;52.490;13.434;2023-04-25T00:40:06;10.80;99.90
20479;DHT22;10398;52.490;13.434;2023-04-25T00:42:33;10.80;99.90
20479;DHT22;10398;52.490;13.434;2023-04-25T00:44:59;10.80;99.90
20479;DHT22;10398;52.490;13.434;2023-04-25T00:47:26;10.70;99.90
20479;DHT22;10398;52.490;13.434;2023-04-25T00:49:51;10.70;99.90
20479;DHT22;10398;52.490;13.434;2023-04-25T00:52:19;10.60;99.90
20479;DHT22;10398;52.490;13.434;2023-04-25T00:54:45;10.60;99.90
20479;DHT22;10398;52.490;13.434;2023-04-25T00:57:11;10.60;99.90
20479;DHT22;10398;52.490;13.434;2023-04-25T00:59:37;10.70;99.90
20479;DHT22;10398;52.490;13.434;2023-04-25T01:02:04;10.70;99.90
20479;DHT22;10398;52.490;13.434;2023-04-25T01:04:30;10.60;99.90
20479;DHT22;10398;52.490;13.434;2023-04-25T01:06:56;10.60;99.90
20479;DHT22;10398;52.490;13.434;2023-04-25T01:09:22;10.70;99.90
20479;DHT22;10398;52.490;13.434;2023-04-25T01:11:49;10.60;99.90
20479;DHT22;10398;52.490;13.434;2023-04-25T01:14:15;10.60;99.90
20479;DHT22;10398;52.490;13.434;2023-04-25T01:16:41;10.60;99.90
20479;DHT22;10398;52.490;13.434;2023-04-25T01:19:09;10.60;99.90
20479;DHT22;10398;52.490;13.434;2023-04-25T01:21:37;10.70;99.90
20479;DHT22;10398;52.490;13.434;2023-04-25T01:24:03;10.70;99.90
20479;DHT22;10398;52.490;13.434;2023-04-25T01:26:29;10.70;99.90
20479;DHT22;10398;52.490;13.434;2023-04-25T01:28:55;10.60;99.90
20479;DHT22;10398;52.490;13.434;2023-04-25T01:31:21;10.70;99.90
20479;DHT22;10398;52.490;13.434;2023-04-25T01:33:48;10.70;99.90
20479;DHT22;10398;52.490;13.434;2023-04-25T01:36:14;10.70;99.90
20479;DHT22;10398;52.490;13.434;2023-04-25T01:38:40;10.60;99.90
20479;DHT22;10398;52.490;13.434;2023-04-25T01:41:06;10.70;99.90
20479;DHT22;10398;52.490;13.434;2023-04-25T01:43:32;10.60;99.90
20479;DHT22;10398;52.490;13.434;2023-04-25T01:45:58;10.60;99.90
20479;DHT22;10398;52.490;13.434;2023-04-25T01:48:25;10.50;99.90
20479;DHT22;10398;52.490;13.434;2023-04-25T01:50:50;10.60;99.90
20479;DHT22;10398;52.490;13.434;2023-04-25T01:53:16;10.60;99.90
20479;DHT22;10398;52.490;13.434;2023-04-25T01:55:42;10.60;99.90
20479;DHT22;10398;52.490;13.434;2023-04-25T01:58:08;10.50;99.90
20479;DHT22;10398;52.490;13.434;2023-04-25T02:00:36;10.60;99.90
20479;DHT22;10398;52.490;13.434;2023-04-25T02:03:04;10.50;99.90
20479;DHT22;10398;52.490;13.434;2023-04-25T02:05:37;10.50;99.90
20479;DHT22;10398;52.490;13.434;2023-04-25T02:08:05;10.30;99.90
20479;DHT22;10398;52.490;13.434;2023-04-25T02:10:31;10.40;99.90
20479;DHT22;10398;52.490;13.434;2023-04-25T02:12:57;10.40;99.90
20479;DHT22;10398;52.490;13.434;2023-04-25T02:15:23;10.40;99.90
20479;DHT22;10398;52.490;13.434;2023-04-25T02:17:49;10.40;99.90
20479;DHT22;10398;52.490;13.434;2023-04-25T02:20:15;10.50;99.90
20479;DHT22;10398;52.490;13.434;2023-04-25T02:22:45;10.50;99.90
20479;DHT22;10398;52.490;13.434;2023-04-25T02:25:11;10.50;99.90
20479;DHT22;10398;52.490;13.434;2023-04-25T02:27:37;10.50;99.90
20479;DHT22;10398;52.490;13.434;2023-04-25T02:30:04;10.60;99.90
20479;DHT22;10398;52.490;13.434;2023-04-25T02:32:30;10.50;99.90
20479;DHT22;10398;52.490;13.434;2023-04-25T02:34:55;10.60;99.90
20479;DHT22;10398;52.490;13.434;2023-04-25T02:37:24;10.60;99.90
20479;DHT22;10398;52.490;13.434;2023-04-25T02:39:49;10.60;99.90
20479;DHT22;10398;52.490;13.434;2023-04-25T02:42:15;10.60;99.90
20479;DHT22;10398;52.490;13.434;2023-04-25T02:44:41;10.70;99.90
20479;DHT22;10398;52.490;13.434;2023-04-25T02:47:06;10.70;99.90
20479;DHT22;10398;52.490;13.434;2023-04-25T02:49:32;10.80;99.90
20479;DHT22;10398;52.490;13.434;2023-04-25T02:51:57;10.60;99.90
20479;DHT22;10398;52.490;13.434;2023-04-25T02:54:23;10.60;99.90
20479;DHT22;10398;52.490;13.434;2023-04-25T02:56:49;10.50;99.90
20479;DHT22;10398;52.490;13.434;2023-04-25T02:59:15;10.50;99.90
20479;DHT22;10398;52.490;13.434;2023-04-25T03:01:40;10.50;99.90
20479;DHT22;10398;52.490;13.434;2023-04-25T03:04:06;10.50;99.90
20479;DHT22;10398;52.490;13.434;2023-04-25T03:06:32;10.40;99.90
20479;DHT22;10398;52.490;13.434;2023-04-25T03:08:57;10.40;99.90
20479;DHT22;10398;52.490;13.434;2023-04-25T03:11:25;10.40;99.90
20479;DHT22;10398;52.490;13.434;2023-04-25T03:13:50;10.40;99.90
20479;DHT22;10398;52.490;13.434;2023-04-25T03:16:16;10.50;99.90
20479;DHT22;10398;52.490;13.434;2023-04-25T03:18:42;10.50;99.90
20479;DHT22;10398;52.490;13.434;2023-04-25T03:21:07;10.60;99.90
20479;DHT22;10398;52.490;13.434;2023-04-25T03:23:33;10.50;99.90
20479;DHT22;10398;52.490;13.434;2023-04-25T03:25:59;10.50;99.90
20479;DHT22;10398;52.490;13.434;2023-04-25T03:28:24;10.50;99.90
20479;DHT22;10398;52.490;13.434;2023-04-25T03:30:50;10.40;99.90
20479;DHT22;10398;52.490;13.434;2023-04-25T03:33:16;10.40;99.90
20479;DHT22;10398;52.490;13.434;2023-04-25T03:35:41;10.30;99.90
20479;DHT22;10398;52.490;13.434;2023-04-25T03:38:08;10.40;99.90
20479;DHT22;10398;52.490;13.434;2023-04-25T03:40:33;10.40;99.90
20479;DHT22;10398;52.490;13.434;2023-04-25T03:42:59;10.40;99.90
20479;DHT22;10398;52.490;13.434;2023-04-25T03:45:25;10.30;99.90
20479;DHT22;10398;52.490;13.434;2023-04-25T03:47:50;10.40;99.90
20479;DHT22;10398;52.490;13.434;2023-04-25T03:50:16;10.40;99.90
20479;DHT22;10398;52.490;13.434;2023-04-25T03:52:42;10.50;99.90
20479;DHT22;10398;52.490;13.434;2023-04-25T03:55:08;10.50;99.90
20479;DHT22;10398;52.490;13.434;2023-04-25T03:57:34;10.40;99.90
20479;DHT22;10398;52.490;13.434;2023-04-25T04:00:00;10.40;99.90
20479;DHT22;10398;52.490;13.434;2023-04-25T04:02:26;10.50;99.90
20479;DHT22;10398;52.490;13.434;2023-04-25T04:04:51;10.60;99.90
20479;DHT22;10398;52.490;13.434;2023-04-25T04:07:17;10.50;99.90
20479;DHT22;10398;52.490;13.434;2023-04-25T04:09:42;10.50;99.90
20479;DHT22;10398;52.490;13.434;2023-04-25T04:12:08;10.50;99.90
20479;DHT22;10398;52.490;13.434;2023-04-25T04:14:34;10.60;99.90
20479;DHT22;10398;52.490;13.434;2023-04-25T04:16:59;10.60;99.90
20479;DHT22;10398;52.490;13.434;2023-04-25T04:19:25;10.60;99.90
20479;DHT22;10398;52.490;13.434;2023-04-25T04:21:51;10.70;99.90
20479;DHT22;10398;52.490;13.434;2023-04-25T04:24:16;10.70;99.90
20479;DHT22;10398;52.490;13.434;2023-04-25T04:26:42;10.80;99.90
20479;DHT22;10398;52.490;13.434;2023-04-25T04:29:10;10.80;99.90
20479;DHT22;10398;52.490;13.434;2023-04-25T04:31:36;10.80;99.90
20479;DHT22;10398;52.490;13.434;2023-04-25T04:34:02;10.90;99.90
20479;DHT22;10398;52.490;13.434;2023-04-25T04:36:29;10.70;99.90
20479;DHT22;10398;52.490;13.434;2023-04-25T04:38:55;10.80;99.90
20479;DHT22;10398;52.490;13.434;2023-04-25T04:41:22;10.80;99.90
20479;DHT22;10398;52.490;13.434;2023-04-25T04:43:47;10.80;99.90
20479;DHT22;10398;52.490;13.434;2023-04-25T04:46:13;10.70;99.90
20479;DHT22;10398;52.490;13.434;2023-04-25T04:48:39;10.60;99.90
20479;DHT22;10398;52.490;13.434;2023-04-25T04:51:06;10.60;99.90
20479;DHT22;10398;52.490;13.434;2023-04-25T04:53:32;10.60;99.90
20479;DHT22;10398;52.490;13.434;2023-04-25T04:55:58;10.70;99.90
20479;DHT22;10398;52.490;13.434;2023-04-25T04:58:23;10.70;99.90
20479;DHT22;10398;52.490;13.434;2023-04-25T05:00:49;10.70;99.90
20479;DHT22;10398;52.490;13.434;2023-04-25T05:03:15;10.60;99.90
20479;DHT22;10398;52.490;13.434;2023-04-25T05:05:41;10.60;99.90
20479;DHT22;10398;52.490;13.434;2023-04-25T05:08:07;10.70;99.90
20479;DHT22;10398;52.490;13.434;2023-04-25T05:10:33;10.70;99.90
20479;DHT22;10398;52.490;13.434;2023-04-25T05:12:59;10.70;99.90
20479;DHT22;10398;52.490;13.434;2023-04-25T05:15:24;10.70;99.90
20479;DHT22;10398;52.490;13.434;2023-04-25T05:17:50;10.80;99.90
20479;DHT22;10398;52.490;13.434;2023-04-25T05:20:16;10.80;99.90
20479;DHT22;10398;52.490;13.434;2023-04-25T05:22:43;10.80;99.90
20479;DHT22;10398;52.490;13.434;2023-04-25T05:25:09;10.90;99.90
20479;DHT22;10398;52.490;13.434;2023-04-25T05:27:35;10.80;99.90
20479;DHT22;10398;52.490;13.434;2023-04-25T05:30:01;10.80;99.90
20479;DHT22;10398;52.490;13.434;2023-04-25T05:32:26;10.80;99.90
20479;DHT22;10398;52.490;13.434;2023-04-25T05:34:52;10.80;99.90
20479;DHT22;10398;52.490;13.434;2023-04-25T05:37:18;10.80;99.90
20479;DHT22;10398;52.490;13.434;2023-04-25T05:39:43;10.80;99.90
20479;DHT22;10398;52.490;13.434;2023-04-25T05:42:09;10.90;99.90
20479;DHT22;10398;52.490;13.434;2023-04-25T05:44:37;10.90;99.90
20479;DHT22;10398;52.490;13.434;2023-04-25T05:47:04;10.90;99.90
20479;DHT22;10398;52.490;13.434;2023-04-25T05:49:30;11.00;99.90
20479;DHT22;10398;52.490;13.434;2023-04-25T05:51:56;11.10;99.90
20479;DHT22;10398;52.490;13.434;2023-04-25T05:54:21;11.20;99.90
20479;DHT22;10398;52.490;13.434;2023-04-25T05:56:47;11.30;99.90
20479;DHT22;10398;52.490;13.434;2023-04-25T05:59:13;11.30;99.90
20479;DHT22;10398;52.490;13.434;2023-04-25T06:01:38;11.30;99.90
20479;DHT22;10398;52.490;13.434;2023-04-25T06:04:04;11.20;99.90
20479;DHT22;10398;52.490;13.434;2023-04-25T06:06:30;11.20;99.90
20479;DHT22;10398;52.490;13.434;2023-04-25T06:08:55;11.20;99.90
20479;DHT22;10398;52.490;13.434;2023-04-25T06:11:21;11.20;99.90
20479;DHT22;10398;52.490;13.434;2023-04-25T06:13:47;11.20;99.90
20479;DHT22;10398;52.490;13.434;2023-04-25T06:16:12;11.20;99.90
20479;DHT22;10398;52.490;13.434;2023-04-25T06:18:38;11.10;99.90
20479;DHT22;10398;52.490;13.434;2023-04-25T06:21:04;11.10;99.90
20479;DHT22;10398;52.490;13.434;2023-04-25T06:23:29;11.10;99.90
20479;DHT22;10398;52.490;13.434;2023-04-25T06:25:55;11.00;99.90
20479;DHT22;10398;52.490;13.434;2023-04-25T06:28:21;11.00;99.90
20479;DHT22;10398;52.490;13.434;2023-04-25T06:30:48;10.90;99.90
20479;DHT22;10398;52.490;13.434;2023-04-25T06:33:13;11.00;99.90
20479;DHT22;10398;52.490;13.434;2023-04-25T06:35:39;11.00;99.90
20479;DHT22;10398;52.490;13.434;2023-04-25T06:38:04;10.90;99.90
20479;DHT22;10398;52.490;13.434;2023-04-25T06:40:30;10.90;99.90
20479;DHT22;10398;52.490;13.434;2023-04-25T06:42:56;10.90;99.90
20479;DHT22;10398;52.490;13.434;2023-04-25T06:45:21;10.90;99.90
20479;DHT22;10398;52.490;13.434;2023-04-25T06:47:47;11.00;99.90
20479;DHT22;10398;52.490;13.434;2023-04-25T06:50:12;11.00;99.90
20479;DHT22;10398;52.490;13.434;2023-04-25T06:52:38;10.90;99.90
20479;DHT22;10398;52.490;13.434;2023-04-25T06:55:04;10.90;99.90
20479;DHT22;10398;52.490;13.434;2023-04-25T06:57:30;10.90;99.90
20479;DHT22;10398;52.490;13.434;2023-04-25T06:59:56;10.80;99.90
20479;DHT22;10398;52.490;13.434;2023-04-25T07:02:22;10.80;99.90
20479;DHT22;10398;52.490;13.434;2023-04-25T07:04:47;10.70;99.90
20479;DHT22;10398;52.490;13.434;2023-04-25T07:07:13;10.70;99.90
20479;DHT22;10398;52.490;13.434;2023-04-25T07:09:39;10.80;99.90
20479;DHT22;10398;52.490;13.434;2023-04-25T07:12:05;10.80;99.90
20479;DHT22;10398;52.490;13.434;2023-04-25T07:14:30;10.80;99.90
20479;DHT22;10398;52.490;13.434;2023-04-25T07:16:56;10.80;99.90
20479;DHT22;10398;52.490;13.434;2023-04-25T07:19:22;11.00;99.90
20479;DHT22;10398;52.490;13.434;2023-04-25T07:21:52;10.90;99.90
20479;DHT22;10398;52.490;13.434;2023-04-25T07:24:18;10.80;99.90
20479;DHT22;10398;52.490;13.434;2023-04-25T07:26:43;10.80;99.90
20479;DHT22;10398;52.490;13.434;2023-04-25T07:29:09;10.90;99.90
20479;DHT22;10398;52.490;13.434;2023-04-25T07:31:35;10.90;99.90
20479;DHT22;10398;52.490;13.434;2023-04-25T07:34:01;10.90;99.90
20479;DHT22;10398;52.490;13.434;2023-04-25T07:36:26;10.80;99.90
20479;DHT22;10398;52.490;13.434;2023-04-25T07:38:52;10.90;99.90
20479;DHT22;10398;52.490;13.434;2023-04-25T07:41:18;10.90;99.90
20479;DHT22;10398;52.490;13.434;2023-04-25T07:43:43;10.90;99.90
20479;DHT22;10398;52.490;13.434;2023-04-25T07:46:09;10.90;99.90
20479;DHT22;10398;52.490;13.434;2023-04-25T07:48:36;10.90;99.90
20479;DHT22;10398;52.490;13.434;2023-04-25T07:51:02;11.10;99.90
20479;DHT22;10398;52.490;13.434;2023-04-25T07:53:30;11.30;99.90
20479;DHT22;10398;52.490;13.434;2023-04-25T07:55:56;11.50;99.90
20479;DHT22;10398;52.490;13.434;2023-04-25T07:58:22;11.70;99.90
20479;DHT22;10398;52.490;13.434;2023-04-25T08:00:48;11.70;99.90
20479;DHT22;10398;52.490;13.434;2023-04-25T08:03:14;11.70;99.90
20479;DHT22;10398;52.490;13.434;2023-04-25T08:05:39;11.90;99.90
20479;DHT22;10398;52.490;13.434;2023-04-25T08:08:05;12.60;99.90
20479;DHT22;10398;52.490;13.434;2023-04-25T08:10:32;12.60;99.90
20479;DHT22;10398;52.490;13.434;2023-04-25T08:12:58;12.70;99.90
20479;DHT22;10398;52.490;13.434;2023-04-25T08:15:25;12.20;99.90
20479;DHT22;10398;52.490;13.434;2023-04-25T08:17:50;12.00;99.90
20479;DHT22;10398;52.490;13.434;2023-04-25T08:20:16;11.90;99.90
20479;DHT22;10398;52.490;13.434;2023-04-25T08:22:42;11.60;99.90
20479;DHT22;10398;52.490;13.434;2023-04-25T08:25:08;11.50;99.90
20479;DHT22;10398;52.490;13.434;2023-04-25T08:27:34;11.40;99.90
20479;DHT22;10398;52.490;13.434;2023-04-25T08:30:00;11.40;99.90
20479;DHT22;10398;52.490;13.434;2023-04-25T08:32:26;11.40;99.90
20479;DHT22;10398;52.490;13.434;2023-04-25T08:34:51;11.40;99.90
20479;DHT22;10398;52.490;13.434;2023-04-25T08:37:19;11.60;99.90
20479;DHT22;10398;52.490;13.434;2023-04-25T08:39:45;11.60;99.90
20479;DHT22;10398;52.490;13.434;2023-04-25T08:42:14;11.70;99.90
20479;DHT22;10398;52.490;13.434;2023-04-25T08:44:40;11.70;99.90
20479;DHT22;10398;52.490;13.434;2023-04-25T08:47:06;11.60;99.90
20479;DHT22;10398;52.490;13.434;2023-04-25T08:49:32;11.50;99.90
20479;DHT22;10398;52.490;13.434;2023-04-25T08:52:03;11.60;99.90
20479;DHT22;10398;52.490;13.434;2023-04-25T08:54:31;11.60;99.90
20479;DHT22;10398;52.490;13.434;2023-04-25T08:57:00;11.60;99.90
20479;DHT22;10398;52.490;13.434;2023-04-25T08:59:28;11.70;99.90
20479;DHT22;10398;52.490;13.434;2023-04-25T09:01:53;11.80;99.90
20479;DHT22;10398;52.490;13.434;2023-04-25T09:04:19;11.80;99.90
20479;DHT22;10398;52.490;13.434;2023-04-25T09:06:46;11.80;99.90
20479;DHT22;10398;52.490;13.434;2023-04-25T09:09:12;11.90;99.90
20479;DHT22;10398;52.490;13.434;2023-04-25T09:11:37;11.90;99.90
20479;DHT22;10398;52.490;13.434;2023-04-25T09:14:22;11.90;99.90
20479;DHT22;10398;52.490;13.434;2023-04-25T09:21:59;12.40;99.90
20479;DHT22;10398;52.490;13.434;2023-04-25T09:24:38;12.60;99.90
20479;DHT22;10398;52.490;13.434;2023-04-25T09:27:09;12.60;99.90
20479;DHT22;10398;52.490;13.434;2023-04-25T09:29:40;12.70;99.90
20479;DHT22;10398;52.490;13.434;2023-04-25T09:32:24;12.80;99.90
20479;DHT22;10398;52.490;13.434;2023-04-25T09:34:52;12.80;99.90
20479;DHT22;10398;52.490;13.434;2023-04-25T09:37:22;12.90;99.90
20479;DHT22;10398;52.490;13.434;2023-04-25T09:39:50;12.90;99.90
20479;DHT22;10398;52.490;13.434;2023-04-25T09:42:16;13.00;99.90
20479;DHT22;10398;52.490;13.434;2023-04-25T09:44:44;13.10;99.90
20479;DHT22;10398;52.490;13.434;2023-04-25T09:47:11;13.20;99.90
20479;DHT22;10398;52.490;13.434;2023-04-25T09:49:42;13.30;99.90
20479;DHT22;10398;52.490;13.434;2023-04-25T09:52:08;13.30;99.90
20479;DHT22;10398;52.490;13.434;2023-04-25T09:54:34;13.40;99.90
20479;DHT22;10398;52.490;13.434;2023-04-25T09:57:12;13.30;99.90
20479;DHT22;10398;52.490;13.434;2023-04-25T10:00:04;13.30;99.90
20479;DHT22;10398;52.490;13.434;2023-04-25T10:02:34;13.20;99.90
20479;DHT22;10398;52.490;13.434;2023-04-25T10:05:05;13.30;99.90
20479;DHT22;10398;52.490;13.434;2023-04-25T10:07:31;13.30;99.90
20479;DHT22;10398;52.490;13.434;2023-04-25T10:10:01;13.30;99.90
20479;DHT22;10398;52.490;13.434;2023-04-25T10:12:28;13.20;99.90
20479;DHT22;10398;52.490;13.434;2023-04-25T10:14:55;13.20;99.90
20479;DHT22;10398;52.490;13.434;2023-04-25T10:17:21;13.20;99.90
20479;DHT22;10398;52.490;13.434;2023-04-25T10:19:47;13.20;99.90
20479;DHT22;10398;52.490;13.434;2023-04-25T10:22:21;13.20;99.90
20479;DHT22;10398;52.490;13.434;2023-04-25T10:24:49;13.10;99.90
20479;DHT22;10398;52.490;13.434;2023-04-25T10:27:16;13.00;99.90
20479;DHT22;10398;52.490;13.434;2023-04-25T10:29:42;13.00;99.90
20479;DHT22;10398;52.490;13.434;2023-04-25T10:32:10;12.90;99.90
20479;DHT22;10398;52.490;13.434;2023-04-25T10:34:43;12.80;99.90
20479;DHT22;10398;52.490;13.434;2023-04-25T10:37:12;12.60;99.90
20479;DHT22;10398;52.490;13.434;2023-04-25T10:39:42;12.50;99.90
20479;DHT22;10398;52.490;13.434;2023-04-25T10:42:08;12.50;99.90
20479;DHT22;10398;52.490;13.434;2023-04-25T10:44:34;12.50;99.90
20479;DHT22;10398;52.490;13.434;2023-04-25T10:47:02;12.50;99.90
20479;DHT22;10398;52.490;13.434;2023-04-25T10:49:41;12.30;99.90
20479;DHT22;10398;52.490;13.434;2023-04-25T10:52:26;12.40;99.90
20479;DHT22;10398;52.490;13.434;2023-04-25T10:54:55;12.40;99.90
20479;DHT22;10398;52.490;13.434;2023-04-25T10:57:47;12.40;99.90
20479;DHT22;10398;52.490;13.434;2023-04-25T11:00:15;12.30;99.90
20479;DHT22;10398;52.490;13.434;2023-04-25T11:02:46;12.30;99.90
20479;DHT22;10398;52.490;13.434;2023-04-25T11:05:36;12.20;99.90
20479;DHT22;10398;52.490;13.434;2023-04-25T11:08:11;12.20;99.90
20479;DHT22;10398;52.490;13.434;2023-04-25T11:10:37;12.40;99.90
20479;DHT22;10398;52.490;13.434;2023-04-25T11:13:05;12.40;99.90
20479;DHT22;10398;52.490;13.434;2023-04-25T11:15:31;12.40;99.90
20479;DHT22;10398;52.490;13.434;2023-04-25T11:17:56;12.40;99.90
20479;DHT22;10398;52.490;13.434;2023-04-25T11:20:25;12.30;99.90
20479;DHT22;10398;52.490;13.434;2023-04-25T11:22:51;12.20;99.90
20479;DHT22;10398;52.490;13.434;2023-04-25T11:25:17;12.20;99.90
20479;DHT22;10398;52.490;13.434;2023-04-25T11:27:53;12.20;99.90
20479;DHT22;10398;52.490;13.434;2023-04-25T11:30:20;12.10;99.90
20479;DHT22;10398;52.490;13.434;2023-04-25T11:32:46;12.10;99.90
20479;DHT22;10398;52.490;13.434;2023-04-25T11:35:12;12.10;99.90
20479;DHT22;10398;52.490;13.434;2023-04-25T11:37:42;12.40;99.90
20479;DHT22;10398;52.490;13.434;2023-04-25T11:40:09;12.60;99.90
20479;DHT22;10398;52.490;13.434;2023-04-25T11:42:47;12.80;99.90
20479;DHT22;10398;52.490;13.434;2023-04-25T11:45:14;13.00;99.90
20479;DHT22;10398;52.490;13.434;2023-04-25T11:47:40;13.00;99.90
20479;DHT22;10398;52.490;13.434;2023-04-25T11:50:07;13.00;99.90
20479;DHT22;10398;52.490;13.434;2023-04-25T11:52:44;13.00;99.90
20479;DHT22;10398;52.490;13.434;2023-04-25T11:55:17;13.20;99.90
20479;DHT22;10398;52.490;13.434;2023-04-25T11:57:45;13.60;99.90
20479;DHT22;10398;52.490;13.434;2023-04-25T12:00:19;13.50;96.50
20479;DHT22;10398;52.490;13.434;2023-04-25T12:02:47;12.90;96.20
20479;DHT22;10398;52.490;13.434;2023-04-25T12:05:16;12.70;96.40
20479;DHT22;10398;52.490;13.434;2023-04-25T12:07:42;12.70;96.10
20479;DHT22;10398;52.490;13.434;2023-04-25T12:10:13;12.60;96.00
20479;DHT22;10398;52.490;13.434;2023-04-25T12:12:42;12.60;96.60
20479;DHT22;10398;52.490;13.434;2023-04-25T12:15:27;12.60;96.60
20479;DHT22;10398;52.490;13.434;2023-04-25T12:17:54;12.50;96.60
20479;DHT22;10398;52.490;13.434;2023-04-25T12:20:31;12.50;97.00
20479;DHT22;10398;52.490;13.434;2023-04-25T12:22:57;12.50;97.20
20479;DHT22;10398;52.490;13.434;2023-04-25T12:28:23;12.70;97.70
20479;DHT22;10398;52.490;13.434;2023-04-25T12:31:15;12.70;97.10
20479;DHT22;10398;52.490;13.434;2023-04-25T12:33:41;12.80;96.30
20479;DHT22;10398;52.490;13.434;2023-04-25T12:36:08;12.80;94.20
20479;DHT22;10398;52.490;13.434;2023-04-25T12:38:39;12.80;93.80
20479;DHT22;10398;52.490;13.434;2023-04-25T12:41:05;12.90;93.60
20479;DHT22;10398;52.490;13.434;2023-04-25T12:43:31;13.00;93.80
20479;DHT22;10398;52.490;13.434;2023-04-25T12:45:57;13.10;94.20
20479;DHT22;10398;52.490;13.434;2023-04-25T12:48:23;13.20;93.80
20479;DHT22;10398;52.490;13.434;2023-04-25T12:50:50;13.30;93.40
20479;DHT22;10398;52.490;13.434;2023-04-25T12:53:18;13.50;93.30
20479;DHT22;10398;52.490;13.434;2023-04-25T12:55:44;13.50;93.40
20479;DHT22;10398;52.490;13.434;2023-04-25T12:58:18;13.50;93.70
20479;DHT22;10398;52.490;13.434;2023-04-25T13:00:44;13.50;94.40
20479;DHT22;10398;52.490;13.434;2023-04-25T13:03:11;13.50;93.90
20479;DHT22;10398;52.490;13.434;2023-04-25T13:05:48;13.40;93.20
20479;DHT22;10398;52.490;13.434;2023-04-25T13:08:14;13.00;92.90
20479;DHT22;10398;52.490;13.434;2023-04-25T13:10:39;12.90;93.40
20479;DHT22;10398;52.490;13.434;2023-04-25T13:13:05;12.90;93.60
20479;DHT22;10398;52.490;13.434;2023-04-25T13:15:31;12.90;93.80
20479;DHT22;10398;52.490;13.434;2023-04-25T13:17:56;12.90;94.20
20479;DHT22;10398;52.490;13.434;2023-04-25T13:20:22;12.90;94.10
20479;DHT22;10398;52.490;13.434;2023-04-25T13:22:48;13.10;94.20
20479;DHT22;10398;52.490;13.434;2023-04-25T13:25:14;13.40;94.50
20479;DHT22;10398;52.490;13.434;2023-04-25T13:27:39;13.80;93.90
20479;DHT22;10398;52.490;13.434;2023-04-25T13:30:06;14.10;91.80
20479;DHT22;10398;52.490;13.434;2023-04-25T13:32:38;14.10;92.20
20479;DHT22;10398;52.490;13.434;2023-04-25T13:35:05;14.20;92.10
20479;DHT22;10398;52.490;13.434;2023-04-25T13:37:31;14.20;91.90
20479;DHT22;10398;52.490;13.434;2023-04-25T13:40:02;14.00;92.30
20479;DHT22;10398;52.490;13.434;2023-04-25T13:42:30;13.70;92.20
20479;DHT22;10398;52.490;13.434;2023-04-25T13:44:56;13.60;93.20
20479;DHT22;10398;52.490;13.434;2023-04-25T13:47:22;13.60;93.10
20479;DHT22;10398;52.490;13.434;2023-04-25T13:49:49;13.50;93.60
20479;DHT22;10398;52.490;13.434;2023-04-25T13:52:15;13.30;93.50
20479;DHT22;10398;52.490;13.434;2023-04-25T13:54:41;13.20;93.70
20479;DHT22;10398;52.490;13.434;2023-04-25T13:57:06;13.20;93.70
20479;DHT22;10398;52.490;13.434;2023-04-25T13:59:32;13.20;93.80
20479;DHT22;10398;52.490;13.434;2023-04-25T14:01:58;13.20;93.90
20479;DHT22;10398;52.490;13.434;2023-04-25T14:04:24;13.20;93.40
20479;DHT22;10398;52.490;13.434;2023-04-25T14:06:50;13.10;93.70
20479;DHT22;10398;52.490;13.434;2023-04-25T14:09:17;13.10;94.00
20479;DHT22;10398;52.490;13.434;2023-04-25T14:11:43;13.10;94.30
20479;DHT22;10398;52.490;13.434;2023-04-25T14:14:08;13.10;94.30
20479;DHT22;10398;52.490;13.434;2023-04-25T14:16:35;13.10;94.60
20479;DHT22;10398;52.490;13.434;2023-04-25T14:19:01;13.00;94.50
20479;DHT22;10398;52.490;13.434;2023-04-25T14:21:27;12.80;94.50
20479;DHT22;10398;52.490;13.434;2023-04-25T14:23:53;12.80;94.90
20479;DHT22;10398;52.490;13.434;2023-04-25T14:26:19;12.80;94.40
20479;DHT22;10398;52.490;13.434;2023-04-25T14:28:45;12.80;94.40
20479;DHT22;10398;52.490;13.434;2023-04-25T14:31:11;12.70;94.30
20479;DHT22;10398;52.490;13.434;2023-04-25T14:33:37;12.70;94.00
20479;DHT22;10398;52.490;13.434;2023-04-25T14:36:05;12.60;94.60
20479;DHT22;10398;52.490;13.434;2023-04-25T14:38:31;12.40;94.00
20479;DHT22;10398;52.490;13.434;2023-04-25T14:40:56;12.50;94.40
20479;DHT22;10398;52.490;13.434;2023-04-25T14:43:22;12.50;94.30
20479;DHT22;10398;52.490;13.434;2023-04-25T14:45:48;12.30;93.90
20479;DHT22;10398;52.490;13.434;2023-04-25T14:48:13;12.30;94.40
20479;DHT22;10398;52.490;13.434;2023-04-25T14:50:40;12.40;95.30
20479;DHT22;10398;52.490;13.434;2023-04-25T14:53:06;12.90;99.90
20479;DHT22;10398;52.490;13.434;2023-04-25T14:55:31;13.00;96.20
20479;DHT22;10398;52.490;13.434;2023-04-25T14:57:57;13.10;95.40
20479;DHT22;10398;52.490;13.434;2023-04-25T15:00:23;12.80;95.00
20479;DHT22;10398;52.490;13.434;2023-04-25T15:02:50;12.70;95.30
20479;DHT22;10398;52.490;13.434;2023-04-25T15:05:15;12.40;95.50
20479;DHT22;10398;52.490;13.434;2023-04-25T15:07:41;12.40;95.70
20479;DHT22;10398;52.490;13.434;2023-04-25T15:10:07;12.40;95.90
20479;DHT22;10398;52.490;13.434;2023-04-25T15:12:47;12.20;96.30
20479;DHT22;10398;52.490;13.434;2023-04-25T15:15:14;12.20;96.60
20479;DHT22;10398;52.490;13.434;2023-04-25T15:17:41;12.20;96.80
20479;DHT22;10398;52.490;13.434;2023-04-25T15:20:08;12.30;97.10
20479;DHT22;10398;52.490;13.434;2023-04-25T15:22:39;12.30;97.00